createdAt,value
2022-08-17T00:02:26.439Z,39.00
2022-08-17T00:04:54.965Z,31.50
2022-08-17T00:07:22.373Z,34.40
2022-08-17T00:09:49.229Z,35.78
2022-08-17T00:12:42.701Z,38.70
2022-08-17T00:15:06.208Z,42.75
2022-08-17T00:17:38.101Z,48.88
2022-08-17T00:20:06.070Z,54.92
2022-08-17T00:22:36.498Z,49.30
2022-08-17T00:25:15.257Z,48.20
2022-08-17T00:27:42.400Z,49.70
2022-08-17T00:30:12.297Z,53.13
2022-08-17T00:33:14.105Z,53.22
2022-08-17T00:35:30.789Z,52.50
2022-08-17T00:37:57.642Z,56.45
2022-08-17T00:40:24.604Z,52.75
2022-08-17T00:42:51.960Z,56.85
2022-08-17T00:45:20.425Z,56.47
2022-08-17T00:47:47.821Z,49.15
2022-08-17T00:50:18.071Z,48.47
2022-08-17T00:52:54.936Z,48.63
2022-08-17T00:55:24.324Z,44.00
2022-08-17T00:57:56.491Z,44.03
2022-08-17T01:00:33.935Z,34.92
2022-08-17T01:03:08.845Z,41.53
2022-08-17T01:05:42.299Z,33.25
2022-08-17T01:08:13.508Z,30.33
2022-08-17T01:10:59.456Z,42.72
2022-08-17T01:13:40.759Z,35.28
2022-08-17T01:16:28.722Z,36.58
2022-08-17T01:19:02.509Z,32.65
2022-08-17T01:21:53.270Z,35.38
2022-08-17T01:24:20.064Z,32.67
2022-08-17T01:26:47.611Z,37.78
2022-08-17T01:29:16.550Z,32.28
2022-08-17T01:31:54.033Z,33.28
2022-08-17T01:34:21.728Z,32.72
2022-08-17T01:36:50.317Z,42.38
2022-08-17T01:39:39.243Z,47.88
2022-08-17T01:42:26.680Z,35.40
2022-08-17T01:44:58.954Z,38.63
2022-08-17T01:47:25.873Z,37.35
2022-08-17T01:49:52.772Z,40.15
2022-08-17T01:52:21.960Z,38.20
2022-08-17T01:54:50.273Z,35.28
2022-08-17T01:57:17.309Z,33.78
2022-08-17T01:59:44.171Z,32.92
2022-08-17T02:02:11.274Z,39.45
2022-08-17T02:04:56.965Z,44.33
2022-08-17T02:07:26.040Z,43.40
2022-08-17T02:09:53.917Z,47.30
2022-08-17T02:12:38.443Z,38.00
2022-08-17T02:15:09.791Z,38.42
2022-08-17T02:17:36.602Z,40.55
2022-08-17T02:20:04.653Z,38.70
2022-08-17T02:22:31.426Z,34.90
2022-08-17T02:25:02.179Z,36.55
2022-08-17T02:27:29.760Z,36.70
2022-08-17T02:29:57.511Z,32.65
2022-08-17T02:32:27.841Z,35.10
2022-08-17T02:34:57.296Z,35.28
2022-08-17T02:37:26.286Z,34.80
2022-08-17T02:39:53.174Z,33.05
2022-08-17T02:42:28.070Z,33.67
2022-08-17T02:44:55.161Z,33.40
2022-08-17T02:47:22.299Z,35.85
2022-08-17T02:49:49.379Z,38.78
2022-08-17T02:52:42.881Z,36.05
2022-08-17T02:55:28.835Z,35.50
2022-08-17T02:57:55.933Z,36.75
2022-08-17T03:00:34.260Z,38.78
2022-08-17T03:03:03.334Z,37.65
2022-08-17T03:05:33.415Z,37.20
2022-08-17T03:08:01.174Z,35.55
2022-08-17T03:10:29.645Z,37.95
2022-08-17T03:12:56.610Z,36.20
2022-08-17T03:15:33.673Z,37.28
2022-08-17T03:18:02.304Z,39.10
2022-08-17T03:20:32.814Z,37.30
2022-08-17T03:23:02.895Z,39.05
2022-08-17T03:25:38.279Z,36.78
2022-08-17T03:28:06.890Z,39.75
2022-08-17T03:30:34.349Z,36.85
2022-08-17T03:33:05.080Z,41.13
2022-08-17T03:35:34.304Z,42.88
2022-08-17T03:38:01.438Z,36.03
2022-08-17T03:40:34.549Z,42.80
2022-08-17T03:43:18.069Z,37.60
2022-08-17T03:46:03.107Z,35.38
2022-08-17T03:48:49.105Z,37.15
2022-08-17T03:51:42.973Z,37.20
2022-08-17T03:54:29.389Z,35.58
2022-08-17T03:57:04.750Z,36.03
2022-08-17T03:59:32.490Z,36.90
2022-08-17T04:02:21.506Z,50.42
2022-08-17T04:04:52.341Z,50.97
2022-08-17T04:07:21.657Z,35.47
2022-08-17T04:09:48.804Z,38.50
2022-08-17T04:12:22.512Z,35.20
2022-08-17T04:14:53.740Z,35.03
2022-08-17T04:17:28.855Z,38.47
2022-08-17T04:19:56.578Z,35.10
2022-08-17T04:22:32.314Z,33.00
2022-08-17T04:25:09.707Z,35.30
2022-08-17T04:27:36.922Z,31.65
2022-08-17T04:30:07.179Z,33.33
2022-08-17T04:33:00.829Z,33.72
2022-08-17T04:35:48.875Z,40.92
2022-08-17T04:38:29.355Z,38.17
2022-08-17T04:41:16.435Z,42.08
2022-08-17T04:43:45.364Z,42.97
2022-08-17T04:46:19.720Z,40.03
2022-08-17T04:48:51.776Z,39.20
2022-08-17T04:51:29.789Z,30.02
2022-08-17T04:54:01.563Z,26.00
2022-08-17T04:56:30.338Z,27.02
2022-08-17T04:59:08.838Z,29.85
2022-08-17T05:01:39.029Z,27.33
2022-08-17T05:04:32.866Z,23.80
2022-08-17T05:06:57.502Z,20.88
2022-08-17T05:09:24.408Z,18.55
2022-08-17T05:11:51.269Z,19.77
2022-08-17T05:14:18.056Z,24.77
2022-08-17T05:16:45.761Z,19.00
2022-08-17T05:19:12.562Z,18.02
2022-08-17T05:21:39.404Z,19.08
2022-08-17T05:24:35.443Z,18.30
2022-08-17T05:26:53.085Z,20.25
2022-08-17T05:29:22.103Z,23.40
2022-08-17T05:32:37.897Z,26.88
2022-08-17T05:59:34.136Z,33.15
2022-08-17T06:02:15.890Z,33.10
2022-08-17T06:05:06.095Z,33.20
2022-08-17T06:08:22.077Z,34.03
2022-08-17T06:11:03.289Z,31.67
2022-08-17T06:13:52.205Z,33.33
2022-08-17T06:16:34.128Z,31.00
2022-08-17T06:19:43.381Z,31.40
2022-08-17T06:22:13.691Z,28.88
2022-08-17T06:24:56.650Z,29.45
2022-08-17T06:27:47.514Z,26.23
2022-08-17T06:30:29.410Z,24.15
2022-08-17T06:33:29.562Z,22.83
2022-08-17T06:36:16.058Z,20.90
2022-08-17T06:39:04.431Z,26.88
2022-08-17T06:42:06.347Z,19.70
2022-08-17T06:47:49.648Z,24.25
2022-08-17T06:50:35.931Z,18.02
2022-08-17T06:53:35.578Z,16.98
2022-08-17T06:56:08.696Z,19.73
2022-08-17T06:58:38.914Z,21.50
2022-08-17T07:01:28.685Z,22.17
2022-08-17T07:04:11.608Z,18.70
2022-08-17T07:07:31.376Z,18.00
2022-08-17T07:10:01.154Z,20.20
2022-08-17T07:12:37.461Z,20.00
2022-08-17T07:15:15.593Z,21.15
2022-08-17T07:17:47.587Z,18.30
2022-08-17T07:20:20.489Z,21.50
2022-08-17T07:23:04.522Z,17.70
2022-08-17T07:25:32.454Z,17.75
2022-08-17T07:28:05.301Z,18.67
2022-08-17T07:30:48.865Z,20.77
2022-08-17T07:35:48.244Z,22.20
2022-08-17T07:38:32.530Z,21.00
2022-08-17T07:41:05.990Z,19.02
2022-08-17T07:43:47.616Z,23.20
2022-08-17T07:46:42.062Z,19.15
2022-08-17T07:49:14.588Z,23.85
2022-08-17T07:51:44.105Z,24.35
2022-08-17T07:54:22.252Z,22.25
2022-08-17T07:57:13.852Z,22.50
2022-08-17T07:59:44.459Z,23.85
2022-08-17T08:02:34.320Z,24.17
2022-08-17T08:05:44.326Z,23.45
2022-08-17T08:08:25.846Z,31.85
2022-08-17T08:11:08.780Z,26.15
2022-08-17T08:13:42.556Z,24.52
2022-08-17T08:16:29.661Z,23.98
2022-08-17T08:19:01.028Z,28.77
2022-08-17T08:24:44.882Z,30.67
2022-08-17T08:27:35.810Z,30.58
2022-08-17T08:30:29.739Z,31.80
2022-08-17T08:33:29.820Z,28.48
2022-08-17T08:36:56.997Z,26.95
2022-08-17T08:39:51.381Z,23.20
2022-08-17T08:42:44.897Z,26.98
2022-08-17T08:45:32.122Z,30.77
2022-08-17T08:49:12.188Z,27.98
2022-08-17T08:51:58.104Z,28.08
2022-08-17T08:54:38.790Z,31.20
2022-08-17T08:57:25.579Z,29.20
2022-08-17T09:00:19.983Z,30.70
2022-08-17T09:03:19.975Z,28.00
2022-08-17T09:06:32.616Z,28.75
2022-08-17T09:09:18.277Z,23.92
2022-08-17T09:12:15.228Z,27.30
2022-08-17T09:14:54.900Z,21.70
2022-08-17T09:17:44.765Z,28.73
2022-08-17T09:20:28.147Z,28.65
2022-08-17T09:23:19.599Z,20.67
2022-08-17T09:25:55.239Z,27.40
2022-08-17T09:28:36.837Z,25.15
2022-08-17T09:31:18.106Z,23.55
2022-08-17T09:36:26.564Z,17.45
2022-08-17T09:39:14.127Z,19.35
2022-08-17T09:42:06.384Z,20.92
2022-08-17T09:44:44.296Z,26.20
2022-08-17T09:47:45.290Z,22.95
2022-08-17T09:50:20.090Z,18.60
2022-08-17T09:53:08.199Z,22.45
2022-08-17T09:56:09.176Z,20.23
2022-08-17T09:59:00.625Z,26.85
2022-08-17T10:01:54.104Z,20.83
2022-08-17T10:04:56.338Z,22.25
2022-08-17T10:07:31.918Z,27.90
2022-08-17T10:11:12.645Z,24.02
2022-08-17T10:13:53.102Z,41.15
2022-08-17T10:16:30.996Z,35.50
2022-08-17T10:19:03.719Z,32.00
2022-08-17T10:22:01.369Z,26.65
2022-08-17T10:25:23.227Z,37.33
2022-08-17T10:28:20.102Z,50.95
2022-08-17T10:31:10.525Z,41.10
2022-08-17T10:34:09.472Z,49.78
2022-08-17T10:37:07.244Z,42.30
2022-08-17T10:39:52.022Z,44.20
2022-08-17T10:42:59.023Z,43.80
2022-08-17T10:46:21.320Z,54.22
2022-08-17T10:48:43.358Z,71.50
2022-08-17T10:51:38.001Z,76.40
2022-08-17T10:54:22.342Z,77.60
2022-08-17T10:56:50.983Z,94.40
2022-08-17T10:59:36.053Z,98.18
2022-08-17T11:02:27.370Z,89.65
2022-08-17T11:05:00.042Z,68.07
2022-08-17T11:07:51.722Z,87.63
2022-08-17T11:14:11.082Z,80.55
2022-08-17T11:17:14.492Z,84.10
2022-08-17T11:20:02.275Z,74.47
2022-08-17T11:22:47.387Z,71.80
2022-08-17T11:25:18.426Z,72.75
2022-08-17T11:27:53.511Z,73.10
2022-08-17T11:30:57.035Z,67.13
2022-08-17T11:33:30.434Z,77.65
2022-08-17T11:36:58.127Z,69.78
2022-08-17T11:40:17.408Z,91.15
2022-08-17T11:42:59.195Z,82.70
2022-08-17T11:45:58.223Z,85.43
2022-08-17T11:49:04.895Z,62.00
2022-08-17T11:52:06.913Z,57.40
2022-08-17T11:54:47.795Z,64.13
2022-08-17T11:57:40.542Z,55.13
2022-08-17T12:00:30.106Z,57.58
2022-08-17T12:03:24.696Z,50.70
2022-08-17T12:06:06.066Z,46.63
2022-08-17T12:08:43.297Z,47.42
2022-08-17T12:12:11.336Z,50.92
2022-08-17T12:14:51.667Z,38.65
2022-08-17T12:17:40.532Z,37.83
2022-08-17T12:20:39.941Z,40.67
2022-08-17T12:23:36.456Z,34.83
2022-08-17T12:26:19.773Z,42.80
2022-08-17T12:28:57.395Z,39.05
2022-08-17T12:31:31.655Z,36.53
2022-08-17T12:34:00.347Z,35.72
2022-08-17T12:36:28.424Z,38.83
2022-08-17T12:39:14.287Z,36.75
2022-08-17T12:41:46.756Z,51.20
2022-08-17T12:44:28.537Z,35.90
2022-08-17T12:47:04.532Z,46.30
2022-08-17T12:49:37.877Z,42.80
2022-08-17T12:52:23.555Z,38.63
2022-08-17T12:54:59.898Z,39.05
2022-08-17T12:57:39.043Z,42.38
2022-08-17T13:00:16.174Z,44.55
2022-08-17T13:02:45.661Z,41.78
2022-08-17T13:05:39.466Z,40.58
2022-08-17T13:08:18.064Z,37.45
2022-08-17T13:11:05.833Z,41.25
2022-08-17T13:13:38.349Z,44.25
2022-08-17T13:16:15.820Z,43.83
2022-08-17T13:18:52.172Z,45.85
2022-08-17T13:21:18.933Z,49.30
2022-08-17T13:24:02.470Z,49.33
2022-08-17T13:27:00.929Z,57.10
2022-08-17T13:29:57.483Z,66.57
2022-08-17T13:32:44.002Z,71.70
2022-08-17T13:35:50.529Z,78.07
2022-08-17T13:38:47.084Z,66.18
2022-08-17T13:41:37.016Z,72.97
2022-08-17T13:44:39.119Z,72.50
2022-08-17T13:47:17.888Z,67.10
2022-08-17T13:49:48.750Z,73.88
2022-08-17T13:55:19.890Z,63.65
2022-08-17T14:00:29.876Z,73.60
2022-08-17T14:02:59.131Z,56.25
2022-08-17T14:05:26.852Z,53.22
2022-08-17T14:08:06.789Z,48.85
2022-08-17T14:10:36.276Z,51.40
2022-08-17T14:13:03.352Z,55.05
2022-08-17T14:15:54.853Z,41.35
2022-08-17T14:18:18.883Z,40.10
2022-08-17T14:21:04.638Z,35.85
2022-08-17T14:23:32.820Z,32.60
2022-08-17T14:25:59.765Z,28.27
2022-08-17T14:28:27.846Z,31.35
2022-08-17T14:30:55.390Z,26.70
2022-08-17T14:33:24.567Z,30.58
2022-08-17T14:35:52.874Z,23.75
2022-08-17T14:38:20.940Z,22.60
2022-08-17T14:40:48.160Z,24.83
2022-08-17T14:43:15.787Z,24.45
2022-08-17T14:45:43.279Z,25.13
2022-08-17T14:48:10.846Z,24.38
2022-08-17T14:50:41.796Z,23.52
2022-08-17T14:53:14.210Z,23.00
2022-08-17T14:55:41.098Z,21.30
2022-08-17T14:58:09.083Z,21.25
2022-08-17T15:00:36.437Z,23.08
2022-08-17T15:03:03.435Z,25.00
2022-08-17T15:05:36.778Z,24.77
2022-08-17T15:08:05.407Z,24.85
2022-08-17T15:10:33.326Z,26.77
2022-08-17T15:13:00.564Z,22.55
2022-08-17T15:15:28.622Z,22.17
2022-08-17T15:17:55.690Z,24.67
2022-08-17T15:20:27.783Z,23.27
2022-08-17T15:22:56.039Z,26.27
2022-08-17T15:25:25.603Z,22.02
2022-08-17T15:27:52.742Z,22.80
2022-08-17T15:30:20.661Z,23.65
2022-08-17T15:32:51.294Z,23.85
2022-08-17T15:35:29.400Z,22.92
2022-08-17T15:38:10.743Z,17.60
2022-08-17T15:40:44.021Z,17.33
2022-08-17T15:43:24.805Z,22.98
2022-08-17T15:46:12.513Z,20.50
2022-08-17T15:48:42.457Z,19.13
2022-08-17T15:51:30.998Z,20.02
2022-08-17T15:54:04.537Z,24.25
2022-08-17T15:56:46.329Z,26.83
2022-08-17T15:59:13.097Z,21.15
2022-08-17T16:03:15.105Z,23.10
2022-08-17T16:04:30.802Z,18.63
2022-08-17T16:06:58.759Z,17.55
2022-08-17T16:09:25.553Z,16.88
2022-08-17T16:11:55.452Z,20.08
2022-08-17T16:14:30.343Z,19.13
2022-08-17T16:17:02.426Z,18.05
2022-08-17T16:19:29.206Z,17.55
2022-08-17T16:21:55.989Z,20.50
2022-08-17T16:24:22.747Z,20.75
2022-08-17T16:26:49.531Z,23.33
2022-08-17T16:29:16.651Z,21.23
2022-08-17T16:31:43.489Z,19.35
2022-08-17T16:34:17.696Z,23.63
2022-08-17T16:36:54.836Z,21.35
2022-08-17T16:39:27.341Z,18.23
2022-08-17T16:44:22.632Z,20.30
2022-08-17T16:46:50.195Z,22.45
2022-08-17T16:49:29.667Z,19.63
2022-08-17T16:52:11.620Z,19.92
2022-08-17T16:54:44.376Z,19.08
2022-08-17T16:57:12.811Z,18.60
2022-08-17T16:59:42.507Z,20.00
2022-08-17T17:02:15.606Z,21.58
2022-08-17T17:05:35.687Z,21.85
2022-08-17T17:08:13.003Z,22.73
2022-08-17T17:10:46.982Z,23.63
2022-08-17T17:13:26.239Z,25.83
2022-08-17T17:16:21.758Z,21.70
2022-08-17T17:19:17.934Z,21.73
2022-08-17T17:22:16.439Z,22.10
2022-08-17T17:24:54.982Z,24.42
2022-08-17T17:28:14.467Z,22.42
2022-08-17T17:30:47.310Z,27.85
2022-08-17T17:33:24.912Z,25.80
2022-08-17T17:35:59.612Z,25.23
2022-08-17T17:38:46.756Z,23.23
2022-08-17T17:41:28.975Z,28.00
2022-08-17T17:44:13.226Z,25.98
2022-08-17T17:46:59.186Z,28.77
2022-08-17T17:49:38.705Z,27.17
2022-08-17T17:52:19.085Z,29.45
2022-08-17T17:55:27.907Z,29.85
2022-08-17T17:58:32.434Z,34.28
2022-08-17T18:01:26.961Z,39.33
2022-08-17T18:04:27.690Z,37.33
2022-08-17T18:07:05.971Z,38.88
2022-08-17T18:10:01.194Z,35.17
2022-08-17T18:15:51.277Z,33.50
2022-08-17T18:18:18.029Z,39.55
2022-08-17T18:20:53.874Z,40.55
2022-08-17T18:23:28.180Z,37.75
2022-08-17T18:25:56.063Z,38.08
2022-08-17T18:28:35.708Z,41.65
2022-08-17T18:31:14.341Z,40.30
2022-08-17T18:33:45.295Z,36.05
2022-08-17T18:36:25.176Z,47.67
2022-08-17T18:39:10.891Z,56.88
2022-08-17T18:41:49.717Z,55.83
2022-08-17T18:44:34.060Z,56.50
2022-08-17T18:47:25.066Z,68.13
2022-08-17T18:49:59.179Z,86.00
2022-08-17T18:52:28.015Z,85.80
2022-08-17T18:55:15.490Z,64.38
2022-08-17T18:57:47.510Z,71.20
2022-08-17T19:00:35.346Z,56.83
2022-08-17T19:03:24.845Z,54.75
2022-08-17T19:06:32.265Z,49.65
2022-08-17T19:09:00.834Z,51.25
2022-08-17T19:11:32.329Z,47.53
2022-08-17T19:16:59.219Z,57.00
2022-08-17T19:19:49.265Z,53.17
2022-08-17T19:22:57.965Z,53.42
2022-08-17T19:25:35.958Z,55.13
2022-08-17T19:28:22.413Z,54.75
2022-08-17T19:31:04.423Z,54.08
2022-08-17T19:33:32.110Z,50.20
2022-08-17T19:36:18.635Z,59.85
2022-08-17T19:38:53.011Z,54.60
2022-08-17T19:41:29.998Z,63.00
2022-08-17T19:44:46.375Z,68.15
2022-08-17T19:47:57.181Z,65.60
2022-08-17T19:50:56.590Z,71.10
2022-08-17T19:54:04.271Z,71.03
2022-08-17T19:56:42.878Z,74.20
2022-08-17T19:59:41.322Z,70.70
2022-08-17T20:02:57.664Z,73.75
2022-08-17T20:05:54.669Z,84.03
2022-08-17T20:08:31.602Z,75.18
2022-08-17T20:11:10.773Z,69.32
2022-08-17T20:14:03.612Z,79.47
2022-08-17T20:16:33.092Z,112.32
2022-08-17T20:19:06.095Z,75.13
2022-08-17T20:21:52.453Z,73.68
2022-08-17T20:24:26.492Z,99.47
2022-08-17T20:26:58.690Z,98.00
2022-08-17T20:30:11.315Z,61.70
2022-08-17T20:35:30.352Z,86.72
2022-08-17T20:38:10.374Z,88.35
2022-08-17T20:40:54.418Z,72.43
2022-08-17T20:43:45.183Z,75.70
2022-08-17T20:46:37.343Z,71.97
2022-08-17T20:49:34.773Z,76.70
2022-08-17T20:52:13.380Z,86.65
2022-08-17T20:54:52.289Z,75.15
2022-08-17T20:57:31.475Z,90.18
2022-08-17T21:00:17.344Z,79.63
2022-08-17T21:02:50.357Z,68.60
2022-08-17T21:05:34.381Z,67.35
2022-08-17T21:08:28.372Z,87.00
2022-08-17T21:10:57.817Z,74.45
2022-08-17T21:14:28.647Z,78.05
2022-08-17T21:17:29.466Z,89.30
2022-08-17T21:20:32.208Z,87.00
2022-08-17T21:23:13.629Z,95.28
2022-08-17T21:26:17.413Z,99.65
2022-08-17T21:29:30.307Z,100.65
2022-08-17T21:31:59.456Z,94.45
2022-08-17T21:34:33.532Z,100.70
2022-08-17T21:37:22.342Z,96.38
2022-08-17T21:40:21.636Z,108.07
2022-08-17T21:43:23.539Z,104.65
2022-08-17T21:46:12.491Z,115.82
2022-08-17T21:48:48.256Z,117.80
2022-08-17T21:51:27.285Z,107.40
2022-08-17T21:54:00.476Z,130.13
2022-08-17T21:56:36.151Z,109.72
2022-08-17T21:59:19.735Z,124.50
2022-08-17T22:02:02.454Z,153.10
2022-08-17T22:04:36.613Z,138.10
2022-08-17T22:07:08.167Z,127.85
2022-08-17T22:09:47.285Z,137.57
2022-08-17T22:12:17.024Z,123.15
2022-08-17T22:14:56.420Z,117.75
2022-08-17T22:17:31.206Z,107.93
2022-08-17T22:20:16.720Z,137.18
2022-08-17T22:23:04.927Z,118.07
2022-08-17T22:25:38.545Z,110.05
2022-08-17T22:28:11.861Z,102.70
2022-08-17T22:30:40.922Z,130.00
2022-08-17T22:33:52.721Z,127.60
2022-08-17T22:36:31.366Z,179.27
2022-08-17T22:39:08.289Z,134.07
2022-08-17T22:42:00.048Z,135.38
2022-08-17T22:44:37.455Z,124.93
2022-08-17T22:47:19.102Z,130.43
2022-08-17T22:49:59.174Z,147.77
2022-08-17T22:52:33.171Z,136.82
2022-08-17T22:55:20.285Z,135.88
2022-08-17T22:58:07.139Z,149.50
2022-08-17T23:00:46.233Z,209.23
2022-08-17T23:03:24.515Z,163.10
2022-08-17T23:06:10.977Z,147.75
2022-08-17T23:08:51.230Z,158.73
2022-08-17T23:11:17.989Z,153.88
2022-08-17T23:13:44.885Z,153.65
2022-08-17T23:16:11.666Z,256.55
2022-08-17T23:18:38.411Z,141.82
2022-08-17T23:21:07.225Z,134.63
2022-08-17T23:23:34.819Z,133.70
2022-08-17T23:26:01.914Z,134.80
2022-08-17T23:28:28.649Z,229.63
2022-08-17T23:30:56.291Z,158.23
2022-08-17T23:33:31.425Z,190.30
2022-08-17T23:35:58.760Z,278.50
2022-08-17T23:38:27.150Z,161.25
2022-08-17T23:40:55.257Z,155.10
2022-08-17T23:43:25.476Z,305.85
2022-08-17T23:45:56.037Z,171.15
2022-08-17T23:48:36.188Z,153.55
2022-08-17T23:51:08.906Z,295.08
2022-08-17T23:53:37.694Z,287.48
2022-08-17T23:56:09.252Z,147.32
2022-08-17T23:58:39.519Z,164.55
